sensor_id;sensor_type;location;lat;lon;timestamp;temperature;humidity
5940;DHT22;2995;-31.998;115.906;2023-02-28T00:01:29;25.30;99.90
5940;DHT22;2995;-31.998;115.906;2023-02-28T00:04:01;25.20;99.90
5940;DHT22;2995;-31.998;115.906;2023-02-28T00:06:32;25.50;99.90
5940;DHT22;2995;-31.998;115.906;2023-02-28T00:09:05;25.60;99.90
5940;DHT22;2995;-31.998;115.906;2023-02-28T00:11:36;25.70;99.90
5940;DHT22;2995;-31.998;115.906;2023-02-28T00:14:08;26.20;99.90
5940;DHT22;2995;-31.998;115.906;2023-02-28T00:16:39;26.20;99.90
5940;DHT22;2995;-31.998;115.906;2023-02-28T00:19:10;26.40;99.90
5940;DHT22;2995;-31.998;115.906;2023-02-28T00:21:42;26.50;99.90
5940;DHT22;2995;-31.998;115.906;2023-02-28T00:24:15;26.70;99.90
5940;DHT22;2995;-31.998;115.906;2023-02-28T00:26:47;27.10;99.90
5940;DHT22;2995;-31.998;115.906;2023-02-28T00:29:18;27.30;99.90
5940;DHT22;2995;-31.998;115.906;2023-02-28T00:31:49;27.50;99.90
5940;DHT22;2995;-31.998;115.906;2023-02-28T00:34:20;27.80;99.90
5940;DHT22;2995;-31.998;115.906;2023-02-28T00:36:51;27.90;99.90
5940;DHT22;2995;-31.998;115.906;2023-02-28T00:39:25;28.00;99.90
5940;DHT22;2995;-31.998;115.906;2023-02-28T00:41:56;28.00;99.90
5940;DHT22;2995;-31.998;115.906;2023-02-28T00:44:28;28.10;99.90
5940;DHT22;2995;-31.998;115.906;2023-02-28T00:46:59;28.20;99.90
5940;DHT22;2995;-31.998;115.906;2023-02-28T00:49:31;28.30;99.90
5940;DHT22;2995;-31.998;115.906;2023-02-28T00:52:02;28.40;99.90
5940;DHT22;2995;-31.998;115.906;2023-02-28T00:54:35;28.40;99.90
5940;DHT22;2995;-31.998;115.906;2023-02-28T00:57:06;28.30;99.90
5940;DHT22;2995;-31.998;115.906;2023-02-28T00:59:38;28.60;99.90
5940;DHT22;2995;-31.998;115.906;2023-02-28T01:02:09;28.60;99.90
5940;DHT22;2995;-31.998;115.906;2023-02-28T01:04:40;28.70;99.90
5940;DHT22;2995;-31.998;115.906;2023-02-28T01:07:11;28.90;99.90
5940;DHT22;2995;-31.998;115.906;2023-02-28T01:09:45;28.90;99.90
5940;DHT22;2995;-31.998;115.906;2023-02-28T01:12:16;28.70;99.90
5940;DHT22;2995;-31.998;115.906;2023-02-28T01:14:47;29.00;99.90
5940;DHT22;2995;-31.998;115.906;2023-02-28T01:17:19;29.20;99.90
5940;DHT22;2995;-31.998;115.906;2023-02-28T01:19:50;29.30;99.90
5940;DHT22;2995;-31.998;115.906;2023-02-28T01:22:23;29.60;99.90
5940;DHT22;2995;-31.998;115.906;2023-02-28T01:24:56;29.80;99.90
5940;DHT22;2995;-31.998;115.906;2023-02-28T01:27:28;29.70;99.90
5940;DHT22;2995;-31.998;115.906;2023-02-28T01:29:59;29.90;99.90
5940;DHT22;2995;-31.998;115.906;2023-02-28T01:32:30;30.00;99.90
5940;DHT22;2995;-31.998;115.906;2023-02-28T01:35:01;30.10;99.90
5940;DHT22;2995;-31.998;115.906;2023-02-28T01:37:32;30.20;99.90
5940;DHT22;2995;-31.998;115.906;2023-02-28T01:40:06;30.40;99.90
5940;DHT22;2995;-31.998;115.906;2023-02-28T01:42:38;30.50;99.90
5940;DHT22;2995;-31.998;115.906;2023-02-28T01:45:21;30.30;99.90
5940;DHT22;2995;-31.998;115.906;2023-02-28T01:47:56;30.20;99.90
5940;DHT22;2995;-31.998;115.906;2023-02-28T01:50:29;30.00;99.90
5940;DHT22;2995;-31.998;115.906;2023-02-28T01:53:04;29.90;99.90
5940;DHT22;2995;-31.998;115.906;2023-02-28T01:55:39;30.10;99.90
5940;DHT22;2995;-31.998;115.906;2023-02-28T01:58:12;30.10;99.90
5940;DHT22;2995;-31.998;115.906;2023-02-28T02:00:43;30.30;99.90
5940;DHT22;2995;-31.998;115.906;2023-02-28T02:03:16;30.50;99.90
5940;DHT22;2995;-31.998;115.906;2023-02-28T02:05:49;30.60;99.90
5940;DHT22;2995;-31.998;115.906;2023-02-28T02:08:22;30.60;99.90
5940;DHT22;2995;-31.998;115.906;2023-02-28T02:10:57;30.90;99.90
5940;DHT22;2995;-31.998;115.906;2023-02-28T02:13:49;30.60;99.90
5940;DHT22;2995;-31.998;115.906;2023-02-28T02:16:38;30.60;99.90
5940;DHT22;2995;-31.998;115.906;2023-02-28T02:19:24;30.60;99.90
5940;DHT22;2995;-31.998;115.906;2023-02-28T02:22:20;30.80;99.90
5940;DHT22;2995;-31.998;115.906;2023-02-28T02:25:15;30.90;99.90
5940;DHT22;2995;-31.998;115.906;2023-02-28T02:28:28;31.00;99.90
5940;DHT22;2995;-31.998;115.906;2023-02-28T02:31:26;30.90;99.90
5940;DHT22;2995;-31.998;115.906;2023-02-28T02:37:21;31.20;99.90
5940;DHT22;2995;-31.998;115.906;2023-02-28T02:40:03;31.40;99.90
5940;DHT22;2995;-31.998;115.906;2023-02-28T02:42:41;31.50;99.90
5940;DHT22;2995;-31.998;115.906;2023-02-28T02:45:16;31.70;99.90
5940;DHT22;2995;-31.998;115.906;2023-02-28T02:47:50;31.60;99.90
5940;DHT22;2995;-31.998;115.906;2023-02-28T02:50:26;31.50;99.90
5940;DHT22;2995;-31.998;115.906;2023-02-28T02:53:02;31.70;99.90
5940;DHT22;2995;-31.998;115.906;2023-02-28T02:55:36;31.80;99.90
5940;DHT22;2995;-31.998;115.906;2023-02-28T02:58:13;32.00;99.90
5940;DHT22;2995;-31.998;115.906;2023-02-28T03:00:47;31.90;99.90
5940;DHT22;2995;-31.998;115.906;2023-02-28T03:03:20;32.00;99.90
5940;DHT22;2995;-31.998;115.906;2023-02-28T03:06:00;32.20;99.90
5940;DHT22;2995;-31.998;115.906;2023-02-28T03:08:40;32.40;99.90
5940;DHT22;2995;-31.998;115.906;2023-02-28T03:11:14;32.60;99.90
5940;DHT22;2995;-31.998;115.906;2023-02-28T03:14:00;32.60;99.90
5940;DHT22;2995;-31.998;115.906;2023-02-28T03:16:51;32.40;99.90
5940;DHT22;2995;-31.998;115.906;2023-02-28T03:19:51;32.30;99.90
5940;DHT22;2995;-31.998;115.906;2023-02-28T03:25:32;32.70;99.90
5940;DHT22;2995;-31.998;115.906;2023-02-28T03:28:12;32.80;99.90
5940;DHT22;2995;-31.998;115.906;2023-02-28T03:30:50;32.70;99.90
5940;DHT22;2995;-31.998;115.906;2023-02-28T03:33:25;32.70;99.90
5940;DHT22;2995;-31.998;115.906;2023-02-28T03:36:00;32.90;99.90
5940;DHT22;2995;-31.998;115.906;2023-02-28T03:38:38;33.10;99.90
5940;DHT22;2995;-31.998;115.906;2023-02-28T03:41:13;33.20;99.90
5940;DHT22;2995;-31.998;115.906;2023-02-28T03:43:48;33.00;99.90
5940;DHT22;2995;-31.998;115.906;2023-02-28T03:46:24;33.00;99.90
5940;DHT22;2995;-31.998;115.906;2023-02-28T03:48:57;33.10;99.90
5940;DHT22;2995;-31.998;115.906;2023-02-28T03:51:30;33.30;99.90
5940;DHT22;2995;-31.998;115.906;2023-02-28T03:54:09;33.60;99.90
5940;DHT22;2995;-31.998;115.906;2023-02-28T03:56:45;33.50;99.20
5940;DHT22;2995;-31.998;115.906;2023-02-28T03:59:20;33.30;98.60
5940;DHT22;2995;-31.998;115.906;2023-02-28T04:01:53;33.30;99.20
5940;DHT22;2995;-31.998;115.906;2023-02-28T04:04:26;33.40;99.00
5940;DHT22;2995;-31.998;115.906;2023-02-28T04:07:03;33.50;99.00
5940;DHT22;2995;-31.998;115.906;2023-02-28T04:09:37;33.70;98.10
5940;DHT22;2995;-31.998;115.906;2023-02-28T04:12:08;33.60;98.10
5940;DHT22;2995;-31.998;115.906;2023-02-28T04:14:40;33.60;98.00
5940;DHT22;2995;-31.998;115.906;2023-02-28T04:17:11;33.60;98.00
5940;DHT22;2995;-31.998;115.906;2023-02-28T04:19:42;33.80;98.70
5940;DHT22;2995;-31.998;115.906;2023-02-28T04:22:13;34.00;98.10
5940;DHT22;2995;-31.998;115.906;2023-02-28T04:24:47;33.90;98.00
5940;DHT22;2995;-31.998;115.906;2023-02-28T04:27:19;33.80;98.20
5940;DHT22;2995;-31.998;115.906;2023-02-28T04:29:50;34.00;97.80
5940;DHT22;2995;-31.998;115.906;2023-02-28T04:32:22;34.10;97.10
5940;DHT22;2995;-31.998;115.906;2023-02-28T04:34:53;34.10;96.80
5940;DHT22;2995;-31.998;115.906;2023-02-28T04:37:24;34.00;97.40
5940;DHT22;2995;-31.998;115.906;2023-02-28T04:39:58;34.20;97.30
5940;DHT22;2995;-31.998;115.906;2023-02-28T04:42:30;34.40;96.50
5940;DHT22;2995;-31.998;115.906;2023-02-28T04:45:04;34.40;96.50
5940;DHT22;2995;-31.998;115.906;2023-02-28T04:47:38;34.30;96.30
5940;DHT22;2995;-31.998;115.906;2023-02-28T04:50:10;34.50;96.50
5940;DHT22;2995;-31.998;115.906;2023-02-28T04:52:45;34.40;96.20
5940;DHT22;2995;-31.998;115.906;2023-02-28T04:55:18;34.30;95.60
5940;DHT22;2995;-31.998;115.906;2023-02-28T04:57:49;34.20;95.60
5940;DHT22;2995;-31.998;115.906;2023-02-28T05:00:21;34.40;95.20
5940;DHT22;2995;-31.998;115.906;2023-02-28T05:02:53;34.40;95.60
5940;DHT22;2995;-31.998;115.906;2023-02-28T05:05:24;34.50;95.50
5940;DHT22;2995;-31.998;115.906;2023-02-28T05:07:55;34.50;95.40
5940;DHT22;2995;-31.998;115.906;2023-02-28T05:10:29;34.60;95.30
5940;DHT22;2995;-31.998;115.906;2023-02-28T05:13:00;34.70;95.10
5940;DHT22;2995;-31.998;115.906;2023-02-28T05:15:31;34.70;94.20
5940;DHT22;2995;-31.998;115.906;2023-02-28T05:18:02;34.60;93.30
5940;DHT22;2995;-31.998;115.906;2023-02-28T05:20:34;34.70;93.70
5940;DHT22;2995;-31.998;115.906;2023-02-28T05:23:05;35.00;94.00
5940;DHT22;2995;-31.998;115.906;2023-02-28T05:25:39;35.00;93.20
5940;DHT22;2995;-31.998;115.906;2023-02-28T05:28:10;35.30;93.60
5940;DHT22;2995;-31.998;115.906;2023-02-28T05:30:42;35.10;92.50
5940;DHT22;2995;-31.998;115.906;2023-02-28T05:33:13;34.90;93.20
5940;DHT22;2995;-31.998;115.906;2023-02-28T05:35:45;34.90;93.20
5940;DHT22;2995;-31.998;115.906;2023-02-28T05:38:16;34.90;92.50
5940;DHT22;2995;-31.998;115.906;2023-02-28T05:40:49;35.10;92.20
5940;DHT22;2995;-31.998;115.906;2023-02-28T05:43:22;35.10;91.60
5940;DHT22;2995;-31.998;115.906;2023-02-28T05:45:54;35.30;92.00
5940;DHT22;2995;-31.998;115.906;2023-02-28T05:48:25;35.30;92.10
5940;DHT22;2995;-31.998;115.906;2023-02-28T05:50:58;35.30;92.10
5940;DHT22;2995;-31.998;115.906;2023-02-28T05:53:30;35.40;90.60
5940;DHT22;2995;-31.998;115.906;2023-02-28T05:56:04;35.40;90.20
5940;DHT22;2995;-31.998;115.906;2023-02-28T05:58:35;35.60;90.90
5940;DHT22;2995;-31.998;115.906;2023-02-28T06:01:22;35.80;91.20
5940;DHT22;2995;-31.998;115.906;2023-02-28T06:03:54;35.80;90.00
5940;DHT22;2995;-31.998;115.906;2023-02-28T06:06:25;35.70;90.60
5940;DHT22;2995;-31.998;115.906;2023-02-28T06:08:57;35.80;88.20
5940;DHT22;2995;-31.998;115.906;2023-02-28T06:11:31;35.80;89.80
5940;DHT22;2995;-31.998;115.906;2023-02-28T06:14:03;36.00;90.20
5940;DHT22;2995;-31.998;115.906;2023-02-28T06:16:35;36.00;90.40
5940;DHT22;2995;-31.998;115.906;2023-02-28T06:19:07;35.90;90.30
5940;DHT22;2995;-31.998;115.906;2023-02-28T06:21:38;36.00;90.50
5940;DHT22;2995;-31.998;115.906;2023-02-28T06:24:09;36.00;90.00
5940;DHT22;2995;-31.998;115.906;2023-02-28T06:26:42;36.00;89.80
5940;DHT22;2995;-31.998;115.906;2023-02-28T06:29:14;36.00;89.10
5940;DHT22;2995;-31.998;115.906;2023-02-28T06:31:46;35.90;88.40
5940;DHT22;2995;-31.998;115.906;2023-02-28T06:34:17;35.90;88.70
5940;DHT22;2995;-31.998;115.906;2023-02-28T06:36:52;35.80;88.40
5940;DHT22;2995;-31.998;115.906;2023-02-28T06:39:23;35.90;88.40
5940;DHT22;2995;-31.998;115.906;2023-02-28T06:41:56;36.00;88.30
5940;DHT22;2995;-31.998;115.906;2023-02-28T06:44:28;36.00;86.50
5940;DHT22;2995;-31.998;115.906;2023-02-28T06:47:03;35.80;86.10
5940;DHT22;2995;-31.998;115.906;2023-02-28T06:49:35;35.80;86.70
5940;DHT22;2995;-31.998;115.906;2023-02-28T06:52:07;35.80;86.30
5940;DHT22;2995;-31.998;115.906;2023-02-28T06:54:38;35.80;86.90
5940;DHT22;2995;-31.998;115.906;2023-02-28T06:57:12;35.80;86.70
5940;DHT22;2995;-31.998;115.906;2023-02-28T06:59:43;35.90;86.60
5940;DHT22;2995;-31.998;115.906;2023-02-28T07:02:14;36.00;86.30
5940;DHT22;2995;-31.998;115.906;2023-02-28T07:04:45;35.90;86.50
5940;DHT22;2995;-31.998;115.906;2023-02-28T07:07:16;35.80;86.10
5940;DHT22;2995;-31.998;115.906;2023-02-28T07:09:48;35.80;86.30
5940;DHT22;2995;-31.998;115.906;2023-02-28T07:12:21;35.80;85.60
5940;DHT22;2995;-31.998;115.906;2023-02-28T07:14:52;36.00;84.80
5940;DHT22;2995;-31.998;115.906;2023-02-28T07:17:24;36.00;83.60
5940;DHT22;2995;-31.998;115.906;2023-02-28T07:19:56;36.20;84.90
5940;DHT22;2995;-31.998;115.906;2023-02-28T07:22:27;36.00;82.60
5940;DHT22;2995;-31.998;115.906;2023-02-28T07:24:59;36.00;83.80
5940;DHT22;2995;-31.998;115.906;2023-02-28T07:27:33;36.00;82.20
5940;DHT22;2995;-31.998;115.906;2023-02-28T07:30:04;35.90;83.30
5940;DHT22;2995;-31.998;115.906;2023-02-28T07:32:36;35.90;82.80
5940;DHT22;2995;-31.998;115.906;2023-02-28T07:35:07;35.90;83.40
5940;DHT22;2995;-31.998;115.906;2023-02-28T07:37:39;35.90;82.50
5940;DHT22;2995;-31.998;115.906;2023-02-28T07:40:12;35.80;82.30
5940;DHT22;2995;-31.998;115.906;2023-02-28T07:42:45;35.90;82.10
5940;DHT22;2995;-31.998;115.906;2023-02-28T07:45:16;35.80;82.40
5940;DHT22;2995;-31.998;115.906;2023-02-28T07:47:48;35.80;82.90
5940;DHT22;2995;-31.998;115.906;2023-02-28T07:50:19;35.90;82.10
5940;DHT22;2995;-31.998;115.906;2023-02-28T07:52:51;36.00;82.30
5940;DHT22;2995;-31.998;115.906;2023-02-28T07:55:22;36.00;81.60
5940;DHT22;2995;-31.998;115.906;2023-02-28T07:57:56;35.90;80.90
5940;DHT22;2995;-31.998;115.906;2023-02-28T08:00:28;35.80;80.90
5940;DHT22;2995;-31.998;115.906;2023-02-28T08:03:00;35.70;80.80
5940;DHT22;2995;-31.998;115.906;2023-02-28T08:05:31;35.80;81.80
5940;DHT22;2995;-31.998;115.906;2023-02-28T08:08:03;35.80;81.90
5940;DHT22;2995;-31.998;115.906;2023-02-28T08:10:34;35.90;81.60
5940;DHT22;2995;-31.998;115.906;2023-02-28T08:13:08;35.90;80.00
5940;DHT22;2995;-31.998;115.906;2023-02-28T08:15:40;35.80;79.20
5940;DHT22;2995;-31.998;115.906;2023-02-28T08:18:13;35.70;80.30
5940;DHT22;2995;-31.998;115.906;2023-02-28T08:20:44;35.70;79.50
5940;DHT22;2995;-31.998;115.906;2023-02-28T08:23:15;35.60;79.20
5940;DHT22;2995;-31.998;115.906;2023-02-28T08:25:54;35.60;80.40
5940;DHT22;2995;-31.998;115.906;2023-02-28T08:28:27;35.70;79.70
5940;DHT22;2995;-31.998;115.906;2023-02-28T08:30:58;35.70;79.00
5940;DHT22;2995;-31.998;115.906;2023-02-28T08:33:29;35.80;78.80
5940;DHT22;2995;-31.998;115.906;2023-02-28T08:36:00;35.80;79.60
5940;DHT22;2995;-31.998;115.906;2023-02-28T08:38:31;35.80;79.30
5940;DHT22;2995;-31.998;115.906;2023-02-28T08:41:06;35.50;78.00
5940;DHT22;2995;-31.998;115.906;2023-02-28T08:43:40;35.50;79.60
5940;DHT22;2995;-31.998;115.906;2023-02-28T08:46:13;35.40;78.60
5940;DHT22;2995;-31.998;115.906;2023-02-28T08:48:44;35.50;78.80
5940;DHT22;2995;-31.998;115.906;2023-02-28T08:51:17;35.40;77.40
5940;DHT22;2995;-31.998;115.906;2023-02-28T08:53:54;35.30;77.50
5940;DHT22;2995;-31.998;115.906;2023-02-28T08:56:26;35.30;78.20
5940;DHT22;2995;-31.998;115.906;2023-02-28T08:58:59;35.40;77.30
5940;DHT22;2995;-31.998;115.906;2023-02-28T09:01:31;35.30;77.30
5940;DHT22;2995;-31.998;115.906;2023-02-28T09:04:02;35.30;77.40
5940;DHT22;2995;-31.998;115.906;2023-02-28T09:06:35;35.30;76.50
5940;DHT22;2995;-31.998;115.906;2023-02-28T09:09:07;35.30;76.50
5940;DHT22;2995;-31.998;115.906;2023-02-28T09:11:38;35.30;76.80
5940;DHT22;2995;-31.998;115.906;2023-02-28T09:14:12;35.40;77.70
5940;DHT22;2995;-31.998;115.906;2023-02-28T09:16:45;35.30;77.50
5940;DHT22;2995;-31.998;115.906;2023-02-28T09:19:16;35.40;77.30
5940;DHT22;2995;-31.998;115.906;2023-02-28T09:21:47;35.30;77.50
5940;DHT22;2995;-31.998;115.906;2023-02-28T09:24:19;35.20;77.80
5940;DHT22;2995;-31.998;115.906;2023-02-28T09:26:50;35.10;78.00
5940;DHT22;2995;-31.998;115.906;2023-02-28T09:29:23;35.00;77.90
5940;DHT22;2995;-31.998;115.906;2023-02-28T09:31:54;34.90;77.00
5940;DHT22;2995;-31.998;115.906;2023-02-28T09:34:26;34.90;77.90
5940;DHT22;2995;-31.998;115.906;2023-02-28T09:36:58;34.80;78.40
5940;DHT22;2995;-31.998;115.906;2023-02-28T09:39:30;34.90;77.50
5940;DHT22;2995;-31.998;115.906;2023-02-28T09:42:02;34.80;75.70
5940;DHT22;2995;-31.998;115.906;2023-02-28T09:44:38;34.80;76.00
5940;DHT22;2995;-31.998;115.906;2023-02-28T09:47:16;34.80;76.00
5940;DHT22;2995;-31.998;115.906;2023-02-28T09:49:50;34.70;75.50
5940;DHT22;2995;-31.998;115.906;2023-02-28T09:52:23;34.70;76.60
5940;DHT22;2995;-31.998;115.906;2023-02-28T09:54:57;34.80;76.50
5940;DHT22;2995;-31.998;115.906;2023-02-28T09:57:33;34.70;76.00
5940;DHT22;2995;-31.998;115.906;2023-02-28T10:00:15;34.60;76.60
5940;DHT22;2995;-31.998;115.906;2023-02-28T10:03:04;34.60;77.20
5940;DHT22;2995;-31.998;115.906;2023-02-28T10:05:41;34.50;76.80
5940;DHT22;2995;-31.998;115.906;2023-02-28T10:08:16;34.40;77.40
5940;DHT22;2995;-31.998;115.906;2023-02-28T10:10:50;34.40;78.10
5940;DHT22;2995;-31.998;115.906;2023-02-28T10:13:26;34.20;78.60
5940;DHT22;2995;-31.998;115.906;2023-02-28T10:16:03;34.20;78.70
5940;DHT22;2995;-31.998;115.906;2023-02-28T10:18:41;34.00;78.90
5940;DHT22;2995;-31.998;115.906;2023-02-28T10:21:19;33.90;79.10
5940;DHT22;2995;-31.998;115.906;2023-02-28T10:23:56;33.90;79.10
5940;DHT22;2995;-31.998;115.906;2023-02-28T10:26:32;33.80;79.30
5940;DHT22;2995;-31.998;115.906;2023-02-28T10:29:04;33.60;80.90
5940;DHT22;2995;-31.998;115.906;2023-02-28T10:31:37;33.70;80.10
5940;DHT22;2995;-31.998;115.906;2023-02-28T10:34:13;33.80;80.70
5940;DHT22;2995;-31.998;115.906;2023-02-28T10:36:44;33.70;81.10
5940;DHT22;2995;-31.998;115.906;2023-02-28T10:39:36;33.60;80.00
5940;DHT22;2995;-31.998;115.906;2023-02-28T10:42:22;33.50;80.40
5940;DHT22;2995;-31.998;115.906;2023-02-28T10:45:14;33.40;80.40
5940;DHT22;2995;-31.998;115.906;2023-02-28T10:47:56;33.30;80.20
5940;DHT22;2995;-31.998;115.906;2023-02-28T10:50:35;33.20;81.70
5940;DHT22;2995;-31.998;115.906;2023-02-28T10:53:35;33.10;80.70
5940;DHT22;2995;-31.998;115.906;2023-02-28T10:56:14;33.00;81.20
5940;DHT22;2995;-31.998;115.906;2023-02-28T10:58:53;33.00;81.50
5940;DHT22;2995;-31.998;115.906;2023-02-28T11:01:34;33.00;81.00
5940;DHT22;2995;-31.998;115.906;2023-02-28T11:04:18;32.80;82.20
5940;DHT22;2995;-31.998;115.906;2023-02-28T11:06:57;32.70;81.60
5940;DHT22;2995;-31.998;115.906;2023-02-28T11:09:31;32.70;81.80
5940;DHT22;2995;-31.998;115.906;2023-02-28T11:12:05;32.80;81.60
5940;DHT22;2995;-31.998;115.906;2023-02-28T11:14:46;32.70;81.20
5940;DHT22;2995;-31.998;115.906;2023-02-28T11:17:21;32.60;81.80
5940;DHT22;2995;-31.998;115.906;2023-02-28T11:19:57;32.50;81.90
5940;DHT22;2995;-31.998;115.906;2023-02-28T11:22:32;32.50;81.70
5940;DHT22;2995;-31.998;115.906;2023-02-28T11:25:12;32.40;81.70
5940;DHT22;2995;-31.998;115.906;2023-02-28T11:27:51;32.30;82.00
5940;DHT22;2995;-31.998;115.906;2023-02-28T11:30:35;32.30;90.00
5940;DHT22;2995;-31.998;115.906;2023-02-28T11:33:24;32.20;85.80
5940;DHT22;2995;-31.998;115.906;2023-02-28T11:36:03;32.10;87.80
5940;DHT22;2995;-31.998;115.906;2023-02-28T11:38:36;31.80;85.00
5940;DHT22;2995;-31.998;115.906;2023-02-28T11:44:24;31.70;90.00
5940;DHT22;2995;-31.998;115.906;2023-02-28T11:47:00;31.70;87.60
5940;DHT22;2995;-31.998;115.906;2023-02-28T11:49:37;31.70;87.70
5940;DHT22;2995;-31.998;115.906;2023-02-28T11:52:21;31.60;89.20
5940;DHT22;2995;-31.998;115.906;2023-02-28T11:55:14;31.40;86.40
5940;DHT22;2995;-31.998;115.906;2023-02-28T12:03:41;31.40;87.40
5940;DHT22;2995;-31.998;115.906;2023-02-28T12:06:22;31.30;87.50
5940;DHT22;2995;-31.998;115.906;2023-02-28T12:09:08;31.30;87.40
5940;DHT22;2995;-31.998;115.906;2023-02-28T12:11:51;31.10;86.40
5940;DHT22;2995;-31.998;115.906;2023-02-28T12:14:44;31.10;86.70
5940;DHT22;2995;-31.998;115.906;2023-02-28T12:17:27;31.10;88.20
5940;DHT22;2995;-31.998;115.906;2023-02-28T12:20:06;31.10;86.50
5940;DHT22;2995;-31.998;115.906;2023-02-28T12:22:43;31.00;86.90
5940;DHT22;2995;-31.998;115.906;2023-02-28T12:25:39;31.00;87.00
5940;DHT22;2995;-31.998;115.906;2023-02-28T12:28:16;31.00;86.90
5940;DHT22;2995;-31.998;115.906;2023-02-28T12:30:54;30.90;87.40
5940;DHT22;2995;-31.998;115.906;2023-02-28T12:33:31;30.90;87.80
5940;DHT22;2995;-31.998;115.906;2023-02-28T12:36:09;30.90;88.10
5940;DHT22;2995;-31.998;115.906;2023-02-28T12:38:46;30.80;87.30
5940;DHT22;2995;-31.998;115.906;2023-02-28T12:41:24;30.70;87.70
5940;DHT22;2995;-31.998;115.906;2023-02-28T12:44:02;30.70;88.10
5940;DHT22;2995;-31.998;115.906;2023-02-28T12:46:37;30.70;87.60
5940;DHT22;2995;-31.998;115.906;2023-02-28T12:49:14;30.60;87.90
5940;DHT22;2995;-31.998;115.906;2023-02-28T12:51:47;30.50;88.70
5940;DHT22;2995;-31.998;115.906;2023-02-28T12:54:24;30.40;89.20
5940;DHT22;2995;-31.998;115.906;2023-02-28T12:57:06;30.40;89.20
5940;DHT22;2995;-31.998;115.906;2023-02-28T12:59:40;30.40;89.60
5940;DHT22;2995;-31.998;115.906;2023-02-28T13:02:34;30.40;89.90
5940;DHT22;2995;-31.998;115.906;2023-02-28T13:11:10;30.30;90.20
5940;DHT22;2995;-31.998;115.906;2023-02-28T13:14:02;30.30;90.30
5940;DHT22;2995;-31.998;115.906;2023-02-28T13:16:53;30.30;90.40
5940;DHT22;2995;-31.998;115.906;2023-02-28T13:19:26;30.20;90.60
5940;DHT22;2995;-31.998;115.906;2023-02-28T13:21:58;30.10;90.50
5940;DHT22;2995;-31.998;115.906;2023-02-28T13:24:43;30.10;90.60
5940;DHT22;2995;-31.998;115.906;2023-02-28T13:27:33;30.20;90.70
5940;DHT22;2995;-31.998;115.906;2023-02-28T13:33:24;29.80;91.00
5940;DHT22;2995;-31.998;115.906;2023-02-28T13:36:26;29.70;91.00
5940;DHT22;2995;-31.998;115.906;2023-02-28T13:39:00;29.70;91.10
5940;DHT22;2995;-31.998;115.906;2023-02-28T13:42:05;29.60;91.10
5940;DHT22;2995;-31.998;115.906;2023-02-28T13:45:26;29.60;91.20
5940;DHT22;2995;-31.998;115.906;2023-02-28T13:48:00;29.50;91.20
5940;DHT22;2995;-31.998;115.906;2023-02-28T13:50:38;29.50;91.40
5940;DHT22;2995;-31.998;115.906;2023-02-28T13:53:35;29.30;91.70
5940;DHT22;2995;-31.998;115.906;2023-02-28T13:56:19;29.30;91.80
5940;DHT22;2995;-31.998;115.906;2023-02-28T13:58:57;29.30;92.00
5940;DHT22;2995;-31.998;115.906;2023-02-28T14:01:52;29.30;92.20
5940;DHT22;2995;-31.998;115.906;2023-02-28T14:04:49;29.20;92.30
5940;DHT22;2995;-31.998;115.906;2023-02-28T14:07:25;29.20;92.40
5940;DHT22;2995;-31.998;115.906;2023-02-28T14:10:01;29.20;92.60
5940;DHT22;2995;-31.998;115.906;2023-02-28T14:12:54;29.10;93.00
5940;DHT22;2995;-31.998;115.906;2023-02-28T14:15:50;28.90;93.10
5940;DHT22;2995;-31.998;115.906;2023-02-28T14:18:28;28.80;93.20
5940;DHT22;2995;-31.998;115.906;2023-02-28T14:21:14;29.00;93.20
5940;DHT22;2995;-31.998;115.906;2023-02-28T14:30:40;28.80;93.20
5940;DHT22;2995;-31.998;115.906;2023-02-28T14:33:25;28.50;93.50
5940;DHT22;2995;-31.998;115.906;2023-02-28T14:36:13;28.50;93.60
5940;DHT22;2995;-31.998;115.906;2023-02-28T14:38:49;28.40;93.80
5940;DHT22;2995;-31.998;115.906;2023-02-28T14:41:26;28.40;93.60
5940;DHT22;2995;-31.998;115.906;2023-02-28T14:44:03;28.30;93.70
5940;DHT22;2995;-31.998;115.906;2023-02-28T14:46:44;28.40;93.80
5940;DHT22;2995;-31.998;115.906;2023-02-28T14:49:42;28.50;93.80
5940;DHT22;2995;-31.998;115.906;2023-02-28T14:52:17;28.20;93.90
5940;DHT22;2995;-31.998;115.906;2023-02-28T14:54:54;28.10;94.10
5940;DHT22;2995;-31.998;115.906;2023-02-28T14:57:27;28.10;94.00
5940;DHT22;2995;-31.998;115.906;2023-02-28T15:00:09;28.00;94.30
5940;DHT22;2995;-31.998;115.906;2023-02-28T15:02:41;28.00;94.10
5940;DHT22;2995;-31.998;115.906;2023-02-28T15:05:25;28.00;94.40
5940;DHT22;2995;-31.998;115.906;2023-02-28T15:08:09;28.00;94.20
5940;DHT22;2995;-31.998;115.906;2023-02-28T15:10:44;28.00;94.20
5940;DHT22;2995;-31.998;115.906;2023-02-28T15:13:16;27.90;94.20
5940;DHT22;2995;-31.998;115.906;2023-02-28T15:15:53;27.90;94.40
5940;DHT22;2995;-31.998;115.906;2023-02-28T15:18:30;27.70;94.50
5940;DHT22;2995;-31.998;115.906;2023-02-28T15:21:05;27.70;94.70
5940;DHT22;2995;-31.998;115.906;2023-02-28T15:23:37;27.70;94.60
5940;DHT22;2995;-31.998;115.906;2023-02-28T15:26:12;27.50;94.70
5940;DHT22;2995;-31.998;115.906;2023-02-28T15:28:45;27.60;95.10
5940;DHT22;2995;-31.998;115.906;2023-02-28T15:31:26;27.40;94.70
5940;DHT22;2995;-31.998;115.906;2023-02-28T15:34:02;27.50;94.90
5940;DHT22;2995;-31.998;115.906;2023-02-28T15:36:34;27.30;94.70
5940;DHT22;2995;-31.998;115.906;2023-02-28T15:39:20;27.30;94.90
5940;DHT22;2995;-31.998;115.906;2023-02-28T15:41:52;27.20;95.10
5940;DHT22;2995;-31.998;115.906;2023-02-28T15:44:27;27.20;94.90
5940;DHT22;2995;-31.998;115.906;2023-02-28T15:47:04;27.00;95.30
5940;DHT22;2995;-31.998;115.906;2023-02-28T15:49:40;26.90;95.30
5940;DHT22;2995;-31.998;115.906;2023-02-28T15:52:18;26.90;95.40
5940;DHT22;2995;-31.998;115.906;2023-02-28T15:54:50;26.80;95.40
5940;DHT22;2995;-31.998;115.906;2023-02-28T15:57:23;26.80;95.30
5940;DHT22;2995;-31.998;115.906;2023-02-28T15:59:56;26.70;95.30
5940;DHT22;2995;-31.998;115.906;2023-02-28T16:02:35;26.70;95.50
5940;DHT22;2995;-31.998;115.906;2023-02-28T16:05:26;26.80;95.40
5940;DHT22;2995;-31.998;115.906;2023-02-28T16:08:11;26.70;95.40
5940;DHT22;2995;-31.998;115.906;2023-02-28T16:10:43;26.60;95.40
5940;DHT22;2995;-31.998;115.906;2023-02-28T16:13:14;26.60;95.40
5940;DHT22;2995;-31.998;115.906;2023-02-28T16:15:45;26.60;95.40
5940;DHT22;2995;-31.998;115.906;2023-02-28T16:18:21;26.60;95.30
5940;DHT22;2995;-31.998;115.906;2023-02-28T16:20:53;26.40;95.30
5940;DHT22;2995;-31.998;115.906;2023-02-28T16:23:27;26.20;95.40
5940;DHT22;2995;-31.998;115.906;2023-02-28T16:25:58;26.10;95.60
5940;DHT22;2995;-31.998;115.906;2023-02-28T16:28:31;26.20;95.70
5940;DHT22;2995;-31.998;115.906;2023-02-28T16:31:05;26.10;95.90
5940;DHT22;2995;-31.998;115.906;2023-02-28T16:33:40;26.10;95.60
5940;DHT22;2995;-31.998;115.906;2023-02-28T16:36:15;26.00;95.70
5940;DHT22;2995;-31.998;115.906;2023-02-28T16:38:46;26.10;95.70
5940;DHT22;2995;-31.998;115.906;2023-02-28T16:41:20;25.90;95.70